createdAt,value
2022-09-27T00:01:40.983Z,84.09
2022-09-27T00:11:47.930Z,84.36
2022-09-27T00:21:55.098Z,84.26
2022-09-27T00:32:02.501Z,84.38
2022-09-27T00:42:13.616Z,84.58
2022-09-27T00:52:25.425Z,84.72
2022-09-27T01:02:33.644Z,84.81
2022-09-27T01:12:40.386Z,84.80
2022-09-27T01:22:46.487Z,84.69
2022-09-27T01:32:53.356Z,84.85
2022-09-27T01:42:58.569Z,84.96
2022-09-27T01:53:07.213Z,85.20
2022-09-27T02:03:18.631Z,85.17
2022-09-27T02:13:29.419Z,85.30
2022-09-27T02:23:35.310Z,85.49
2022-09-27T02:33:40.235Z,85.59
2022-09-27T02:43:49.810Z,85.81
2022-09-27T02:53:58.500Z,85.76
2022-09-27T03:04:04.593Z,85.87
2022-09-27T03:14:11.768Z,86.16
2022-09-27T03:24:18.225Z,85.85
2022-09-27T03:34:25.187Z,85.96
2022-09-27T03:44:33.107Z,85.97
2022-09-27T03:54:40.454Z,86.11
2022-09-27T04:04:46.462Z,86.29
2022-09-27T04:14:55.448Z,86.37
2022-09-27T04:25:01.618Z,86.47
2022-09-27T04:35:22.001Z,86.59
2022-09-27T04:45:29.196Z,86.79
2022-09-27T04:55:34.288Z,86.58
2022-09-27T05:05:41.545Z,86.47
2022-09-27T05:15:48.644Z,86.56
2022-09-27T05:25:56.657Z,87.21
2022-09-27T05:36:02.659Z,87.66
2022-09-27T05:46:10.091Z,87.59
2022-09-27T05:56:16.135Z,87.22
2022-09-27T06:06:22.989Z,86.86
2022-09-27T06:16:30.259Z,86.35
2022-09-27T06:26:37.745Z,85.75
2022-09-27T06:36:48.276Z,85.59
2022-09-27T06:46:58.032Z,85.40
2022-09-27T06:57:05.265Z,85.25
2022-09-27T07:07:14.214Z,85.16
2022-09-27T07:17:21.534Z,85.03
2022-09-27T07:27:28.987Z,85.07
2022-09-27T07:37:35.429Z,85.13
2022-09-27T07:47:41.215Z,85.19
2022-09-27T07:57:48.606Z,84.58
2022-09-27T08:07:55.608Z,84.49
2022-09-27T08:18:01.649Z,83.72
2022-09-27T08:28:08.768Z,83.22
2022-09-27T08:38:15.429Z,82.87
2022-09-27T08:48:22.307Z,81.79
2022-09-27T08:58:29.424Z,80.07
2022-09-27T09:08:39.907Z,79.43
2022-09-27T09:18:59.420Z,77.79
2022-09-27T09:29:11.568Z,76.75
2022-09-27T09:39:16.676Z,76.03
2022-09-27T09:49:24.122Z,74.47
2022-09-27T09:59:30.714Z,70.71
2022-09-27T10:09:37.909Z,70.52
2022-09-27T10:19:46.005Z,71.21
2022-09-27T10:29:57.882Z,70.97
2022-09-27T10:40:02.689Z,70.17
2022-09-27T10:50:38.934Z,69.14
2022-09-27T11:00:42.241Z,68.26
2022-09-27T11:11:02.274Z,67.48
2022-09-27T11:21:09.943Z,65.85
2022-09-27T11:31:19.487Z,64.36
2022-09-27T11:41:31.980Z,64.56
2022-09-27T11:51:43.203Z,63.67
2022-09-27T12:01:56.049Z,63.42
2022-09-27T12:12:04.316Z,63.38
2022-09-27T12:22:29.767Z,63.48
2022-09-27T12:32:45.958Z,63.36
2022-09-27T12:42:50.958Z,63.38
2022-09-27T12:52:58.673Z,63.43
2022-09-27T13:03:26.301Z,63.47
2022-09-27T13:13:36.898Z,62.61
2022-09-27T13:23:59.910Z,62.91
2022-09-27T13:34:28.119Z,63.00
2022-09-27T13:44:41.799Z,63.50
2022-09-27T13:54:51.728Z,64.24
2022-09-27T14:05:01.410Z,64.74
2022-09-27T14:15:06.178Z,65.17
2022-09-27T14:25:20.539Z,66.08
2022-09-27T14:35:46.668Z,67.30
2022-09-27T14:45:58.723Z,68.46
2022-09-27T14:56:08.373Z,70.06
2022-09-27T15:06:16.358Z,70.75
2022-09-27T15:16:26.952Z,71.43
2022-09-27T15:26:36.369Z,72.03
2022-09-27T15:36:54.189Z,72.71
2022-09-27T15:47:01.664Z,73.54
2022-09-27T15:57:12.678Z,73.89
2022-09-27T16:07:19.849Z,74.28
2022-09-27T16:17:27.107Z,74.69
2022-09-27T16:27:34.155Z,75.09
2022-09-27T16:37:42.583Z,75.53
2022-09-27T16:47:50.216Z,75.57
2022-09-27T16:57:59.319Z,76.28
2022-09-27T17:08:08.180Z,76.63
2022-09-27T17:18:15.749Z,76.97
2022-09-27T17:28:23.318Z,77.27
2022-09-27T17:38:29.708Z,77.19
2022-09-27T17:48:55.243Z,77.55
2022-09-27T17:59:02.434Z,77.44
2022-09-27T18:09:10.031Z,77.75
2022-09-27T18:19:18.643Z,77.83
2022-09-27T18:29:26.009Z,78.10
2022-09-27T18:39:31.993Z,78.41
2022-09-27T18:49:39.371Z,78.68
2022-09-27T18:59:47.099Z,78.87
2022-09-27T19:09:54.141Z,79.15
2022-09-27T19:20:00.173Z,79.03
2022-09-27T19:30:06.434Z,79.15
2022-09-27T19:40:13.100Z,79.34
2022-09-27T20:00:26.766Z,80.19
2022-09-27T20:10:34.253Z,80.37
2022-09-27T20:20:41.639Z,80.42
2022-09-27T20:30:57.187Z,80.58
2022-09-27T20:41:04.666Z,80.66
2022-09-27T20:51:14.421Z,80.49
2022-09-27T21:01:22.006Z,80.66
2022-09-27T21:11:28.748Z,80.88
2022-09-27T21:21:36.022Z,80.90
2022-09-27T21:31:43.299Z,81.03
2022-09-27T21:41:50.885Z,80.97
2022-09-27T21:51:57.983Z,80.75
2022-09-27T22:02:03.862Z,80.70
2022-09-27T22:12:11.296Z,80.83
2022-09-27T22:22:18.437Z,80.94
2022-09-27T22:32:25.703Z,81.03
2022-09-27T22:42:32.792Z,81.25
2022-09-27T22:52:39.793Z,81.18
2022-09-27T23:02:47.380Z,81.31
2022-09-27T23:12:54.976Z,81.31
2022-09-27T23:23:01.940Z,81.28
2022-09-27T23:33:08.546Z,81.44
2022-09-27T23:43:14.371Z,81.45
2022-09-27T23:53:21.956Z,81.30
